Time;durP1;ratioP1;P1;durP2;ratioP2;P2;SDS_P1;SDS_P2;PMS_P1;PMS_P2;Temp;Humidity;BMP_temperature;BMP_pressure;BME280_temperature;BME280_humidity;BME280_pressure;Samples;Min_cycle;Max_cycle;Signal;HPM_P1;HPM_P2
2023/04/15 00:00:14;;;;;;;;;;;;;;;;;;5052820;28;19960;-70
2023/04/15 00:02:40;;;;;;;;;;;;;;;;;;5054122;28;19963;-70
2023/04/15 00:05:06;;;;;;;;;;;;;;;;;;5054047;28;19956;-68
2023/04/15 00:07:32;;;;;;;;;;;;;;;;;;5054586;28;20426;-69
2023/04/15 00:09:58;;;;;;;;;;;;;;;;;;5054242;28;19963;-69
2023/04/15 00:12:24;;;;;;;;;;;;;;;;;;5053886;28;20375;-70
2023/04/15 00:14:50;;;;;;;;;;;;;;;;;;5053893;28;19956;-70
2023/04/15 00:17:16;;;;;;;;;;;;;;;;;;5053871;28;20381;-68
2023/04/15 00:19:43;;;;;;;;;;;;;;;;;;5052524;28;20133;-68
2023/04/15 00:22:10;;;;;;;;;;;;;;;;;;5053310;28;20030;-68
2023/04/15 00:24:36;;;;;;;;;;;;;;;;;;5053730;28;19979;-68
2023/04/15 00:27:02;;;;;;;;;;;;;;;;;;5054295;28;20428;-70
2023/04/15 00:29:29;;;;;;;;;;;;;;;;;;5053595;28;19972;-69
2023/04/15 00:31:55;;;;;;;;;;;;;;;;;;5053671;28;19956;-69
2023/04/15 00:34:22;;;;;;;;;;;;;;;;;;5053910;28;19999;-68
2023/04/15 00:36:47;;;;;;;;;;;;;;;;;;5053622;28;20523;-70
2023/04/15 00:39:15;;;;;;;;;;;;;;;;;;5054113;28;19998;-70
2023/04/15 00:41:41;;;;;;;;;;;;;;;;;;5053474;28;19979;-69
2023/04/15 00:44:06;;;;;;;;;;;;;;;;;;5053805;28;19960;-68
2023/04/15 00:46:33;;;;;;;;;;;;;;;;;;5053510;28;19960;-69
2023/04/15 00:48:59;;;;;;;;;;;;;;;;;;5053798;28;19998;-68
2023/04/15 00:51:24;;;;;;;;;;;;;;;;;;5053464;28;19956;-68
2023/04/15 00:53:50;;;;;;;;;;;;;;;;;;5053442;28;19956;-69
2023/04/15 00:56:16;;;;;;;;;;;;;;;;;;5053677;28;19956;-69
2023/04/15 00:58:42;;;;;;;;;;;;;;;;;;5053438;28;19967;-69
2023/04/15 01:01:08;;;;;;;;;;;;;;;;;;5053906;28;20424;-68
2023/04/15 01:03:35;;;;;;;;;;;;;;;;;;5053608;28;20316;-68
2023/04/15 01:06:00;;;;;;;;;;;;;;;;;;5054180;28;19955;-68
2023/04/15 01:08:26;;;;;;;;;;;;;;;;;;5053299;28;20328;-69
2023/04/15 01:10:52;;;;;;;;;;;;;;;;;;5053303;28;20324;-68
2023/04/15 01:13:18;;;;;;;;;;;;;;;;;;5053317;28;19956;-69
2023/04/15 01:15:44;;;;;;;;;;;;;;;;;;5053509;28;19956;-69
2023/04/15 01:18:10;;;;;;;;;;;;;;;;;;5053185;28;20051;-70
2023/04/15 01:20:36;;;;;;;;;;;;;;;;;;5053131;28;19956;-70
2023/04/15 01:23:02;;;;;;;;;;;;;;;;;;5052982;28;19996;-69
2023/04/15 01:25:28;;;;;;;;;;;;;;;;;;5053154;28;20448;-68
2023/04/15 01:27:54;;;;;;;;;;;;;;;;;;5053164;28;20055;-70
2023/04/15 01:30:20;;;;;;;;;;;;;;;;;;5053071;28;19972;-68
2023/04/15 01:32:46;;;;;;;;;;;;;;;;;;5053621;28;20535;-70
2023/04/15 01:35:12;;;;;;;;;;;;;;;;;;5056821;28;20006;-69
2023/04/15 01:37:38;;;;;;;;;;;;;;;;;;5057099;28;19963;-69
2023/04/15 01:40:04;;;;;;;;;;;;;;;;;;5057058;28;19963;-68
2023/04/15 01:42:30;;;;;;;;;;;;;;;;;;5056637;28;19976;-70
2023/04/15 01:44:56;;;;;;;;;;;;;;;;;;5057258;28;20401;-70
2023/04/15 01:47:22;;;;;;;;;;;;;;;;;;5056649;28;19963;-70
2023/04/15 01:49:47;;;;;;;;;;;;;;;;;;5056888;28;19995;-68
2023/04/15 01:52:14;;;;;;;;;;;;;;;;;;5056519;28;19959;-69
2023/04/15 01:54:41;;;;;;;;;;;;;;;;;;5056477;28;20069;-69
2023/04/15 01:57:07;;;;;;;;;;;;;;;;;;5055793;28;19968;-69
2023/04/15 01:59:33;;;;;;;;;;;;;;;;;;5056422;28;19955;-70
2023/04/15 02:01:59;;;;;;;;;;;;;;;;;;5056296;28;19976;-70
2023/04/15 02:04:25;;;;;;;;;;;;;;;;;;5056592;28;19963;-69
2023/04/15 02:06:51;;;;;;;;;;;;;;;;;;5056573;28;19956;-69
2023/04/15 02:09:17;;;;;;;;;;;;;;;;;;5056494;28;20082;-69
2023/04/15 02:11:43;;;;;;;;;;;;;;;;;;5056745;28;19960;-70
2023/04/15 02:14:09;;;;;;;;;;;;;;;;;;5056397;28;19956;-69
2023/04/15 02:16:35;;;;;;;;;;;;;;;;;;5056649;28;19962;-70
2023/04/15 02:19:02;;;;;;;;;;;;;;;;;;5056024;28;20027;-68
2023/04/15 02:21:28;;;;;;;;;;;;;;;;;;5055752;28;19992;-70
2023/04/15 02:23:56;;;;;;;;;;;;;;;;;;5055498;28;20152;-68
2023/04/15 02:26:21;;;;;;;;;;;;;;;;;;5056173;28;19956;-69
2023/04/15 02:28:50;;;;;;;;;;;;;;;;;;5055343;28;20400;-68
2023/04/15 02:31:16;;;;;;;;;;;;;;;;;;5056371;28;19963;-69
2023/04/15 02:33:42;;;;;;;;;;;;;;;;;;5055788;28;19956;-69
2023/04/15 02:36:09;;;;;;;;;;;;;;;;;;5056272;28;19991;-68
2023/04/15 02:38:35;;;;;;;;;;;;;;;;;;5054408;28;20009;-69
2023/04/15 02:41:01;;;;;;;;;;;;;;;;;;5055557;28;19979;-69
2023/04/15 02:43:27;;;;;;;;;;;;;;;;;;5055369;28;19956;-70
2023/04/15 02:45:53;;;;;;;;;;;;;;;;;;5055825;28;19981;-69
2023/04/15 02:48:19;;;;;;;;;;;;;;;;;;5055429;28;19960;-70
2023/04/15 02:50:45;;;;;;;;;;;;;;;;;;5055448;28;19956;-68
2023/04/15 02:53:12;;;;;;;;;;;;;;;;;;5055423;28;19992;-69
2023/04/15 02:55:38;;;;;;;;;;;;;;;;;;5055926;28;19993;-69
2023/04/15 02:58:04;;;;;;;;;;;;;;;;;;5055295;28;20398;-70
2023/04/15 03:00:30;;;;;;;;;;;;;;;;;;5055157;28;19960;-68
2023/04/15 03:02:56;;;;;;;;;;;;;;;;;;5055220;28;19980;-69
2023/04/15 03:05:24;;;;;;;;;;;;;;;;;;5055169;28;19982;-68
2023/04/15 03:07:50;;;;;;;;;;;;;;;;;;5055685;28;19956;-70
2023/04/15 03:10:16;;;;;;;;;;;;;;;;;;5055365;28;20006;-70
2023/04/15 03:12:42;;;;;;;;;;;;;;;;;;5055047;28;19963;-69
2023/04/15 03:15:08;;;;;;;;;;;;;;;;;;5055257;28;19989;-69
2023/04/15 03:17:34;;;;;;;;;;;;;;;;;;5055762;28;19956;-69
2023/04/15 03:20:00;;;;;;;;;;;;;;;;;;5054870;28;20005;-69
2023/04/15 03:22:26;;;;;;;;;;;;;;;;;;5054397;28;19992;-70
2023/04/15 03:24:52;;;;;;;;;;;;;;;;;;5055044;28;19963;-69
2023/04/15 03:27:18;;;;;;;;;;;;;;;;;;5055019;28;19990;-70
2023/04/15 03:29:43;;;;;;;;;;;;;;;;;;5054967;28;20023;-68
2023/04/15 03:32:11;;;;;;;;;;;;;;;;;;5054649;28;19955;-69
2023/04/15 03:34:36;;;;;;;;;;;;;;;;;;5054579;28;19956;-69
2023/04/15 03:37:02;;;;;;;;;;;;;;;;;;5054815;28;19960;-68
2023/04/15 03:39:28;;;;;;;;;;;;;;;;;;5054535;28;19962;-68
2023/04/15 03:41:55;;;;;;;;;;;;;;;;;;5054399;28;20074;-69
2023/04/15 03:44:21;;;;;;;;;;;;;;;;;;5054654;28;20313;-70
2023/04/15 03:46:47;;;;;;;;;;;;;;;;;;5054910;28;19975;-69
2023/04/15 03:49:13;;;;;;;;;;;;;;;;;;5054334;28;19959;-70
2023/04/15 03:51:38;;;;;;;;;;;;;;;;;;5054257;28;19955;-68
2023/04/15 03:54:04;;;;;;;;;;;;;;;;;;5054528;28;19999;-70
2023/04/15 03:56:30;;;;;;;;;;;;;;;;;;5053612;28;19956;-69
2023/04/15 03:58:56;;;;;;;;;;;;;;;;;;5054187;28;19956;-70
2023/04/15 04:01:22;;;;;;;;;;;;;;;;;;5054335;28;19984;-68
2023/04/15 04:03:48;;;;;;;;;;;;;;;;;;5054112;28;20039;-69
2023/04/15 04:06:14;;;;;;;;;;;;;;;;;;5054873;28;20427;-68
2023/04/15 04:08:40;;;;;;;;;;;;;;;;;;5054033;28;20340;-70
2023/04/15 04:11:06;;;;;;;;;;;;;;;;;;5054512;28;19963;-69
2023/04/15 04:13:32;;;;;;;;;;;;;;;;;;5053833;28;19964;-69
2023/04/15 04:15:58;;;;;;;;;;;;;;;;;;5054200;28;19981;-69
2023/04/15 04:18:24;;;;;;;;;;;;;;;;;;5053865;28;19956;-70
2023/04/15 04:20:50;;;;;;;;;;;;;;;;;;5053601;28;19983;-70
2023/04/15 04:23:16;;;;;;;;;;;;;;;;;;5054087;28;19967;-68
2023/04/15 04:25:42;;;;;;;;;;;;;;;;;;5053723;28;20043;-70
2023/04/15 04:28:08;;;;;;;;;;;;;;;;;;5054285;28;19978;-69
2023/04/15 04:30:34;;;;;;;;;;;;;;;;;;5053625;28;20432;-70
2023/04/15 04:33:00;;;;;;;;;;;;;;;;;;5053931;28;19959;-69
2023/04/15 04:35:26;;;;;;;;;;;;;;;;;;5053644;28;19956;-68
2023/04/15 04:37:52;;;;;;;;;;;;;;;;;;5053625;28;20430;-70
2023/04/15 04:40:18;;;;;;;;;;;;;;;;;;5053489;28;19987;-69
2023/04/15 04:42:44;;;;;;;;;;;;;;;;;;5053755;28;20034;-70
2023/04/15 04:45:10;;;;;;;;;;;;;;;;;;5053483;28;20301;-70
2023/04/15 04:47:36;;;;;;;;;;;;;;;;;;5053538;28;19956;-70
2023/04/15 04:50:02;;;;;;;;;;;;;;;;;;5053510;28;19991;-69
2023/04/15 04:52:28;;;;;;;;;;;;;;;;;;5053714;28;19959;-70
2023/04/15 04:54:54;;;;;;;;;;;;;;;;;;5053421;28;20114;-68
2023/04/15 04:57:20;;;;;;;;;;;;;;;;;;5053688;28;19956;-69
2023/04/15 04:59:46;;;;;;;;;;;;;;;;;;5053411;28;19956;-68
2023/04/15 05:02:12;;;;;;;;;;;;;;;;;;5053626;28;20365;-68
2023/04/15 05:04:38;;;;;;;;;;;;;;;;;;5053392;28;20009;-68
2023/04/15 05:07:04;;;;;;;;;;;;;;;;;;5053351;28;20375;-68
2023/04/15 05:09:31;;;;;;;;;;;;;;;;;;5056757;28;19956;-69
2023/04/15 05:11:57;;;;;;;;;;;;;;;;;;5057572;28;19995;-70
2023/04/15 05:14:23;;;;;;;;;;;;;;;;;;5057560;28;20321;-70
2023/04/15 05:16:49;;;;;;;;;;;;;;;;;;5057222;28;20012;-70
2023/04/15 05:19:14;;;;;;;;;;;;;;;;;;5057172;28;19956;-68
2023/04/15 05:21:40;;;;;;;;;;;;;;;;;;5056844;28;20448;-69
2023/04/15 05:24:06;;;;;;;;;;;;;;;;;;5057069;28;19963;-70
2023/04/15 05:26:32;;;;;;;;;;;;;;;;;;5057608;28;19960;-68
2023/04/15 05:28:58;;;;;;;;;;;;;;;;;;5056941;28;19956;-69
2023/04/15 05:31:24;;;;;;;;;;;;;;;;;;5057281;28;20337;-69
2023/04/15 05:33:50;;;;;;;;;;;;;;;;;;5056950;28;19955;-70
2023/04/15 05:36:16;;;;;;;;;;;;;;;;;;5056896;28;19963;-69
2023/04/15 05:38:42;;;;;;;;;;;;;;;;;;5057362;28;20458;-69
2023/04/15 05:41:08;;;;;;;;;;;;;;;;;;5056986;28;20066;-68
2023/04/15 05:43:33;;;;;;;;;;;;;;;;;;5056755;28;20347;-70
2023/04/15 05:45:59;;;;;;;;;;;;;;;;;;5056684;28;19963;-69
2023/04/15 05:48:25;;;;;;;;;;;;;;;;;;5056672;28;20006;-69
2023/04/15 05:50:51;;;;;;;;;;;;;;;;;;5056897;28;19956;-70
2023/04/15 05:53:17;;;;;;;;;;;;;;;;;;5056560;28;20372;-68
2023/04/15 05:55:43;;;;;;;;;;;;;;;;;;5056760;28;19985;-69
2023/04/15 05:58:10;;;;;;;;;;;;;;;;;;5056444;28;19956;-69
2023/04/15 06:00:36;;;;;;;;;;;;;;;;;;5056361;28;20020;-69
2023/04/15 06:03:02;;;;;;;;;;;;;;;;;;5056902;28;20410;-69
2023/04/15 06:05:28;;;;;;;;;;;;;;;;;;5056376;28;19962;-70
2023/04/15 06:07:54;;;;;;;;;;;;;;;;;;5054782;28;19960;-68
2023/04/15 06:10:20;;;;;;;;;;;;;;;;;;5056539;28;19956;-68
2023/04/15 06:12:46;;;;;;;;;;;;;;;;;;5056191;28;19967;-69
2023/04/15 06:15:12;;;;;;;;;;;;;;;;;;5056389;28;20074;-69
2023/04/15 06:17:38;;;;;;;;;;;;;;;;;;5056684;28;19956;-68
2023/04/15 06:20:04;;;;;;;;;;;;;;;;;;5055768;28;19956;-70
2023/04/15 06:22:30;;;;;;;;;;;;;;;;;;5055801;28;19998;-70
2023/04/15 06:24:56;;;;;;;;;;;;;;;;;;5055985;28;19956;-68
2023/04/15 06:27:22;;;;;;;;;;;;;;;;;;5056150;28;19956;-70
2023/04/15 06:29:48;;;;;;;;;;;;;;;;;;5055789;28;19971;-69
2023/04/15 06:32:14;;;;;;;;;;;;;;;;;;5055777;28;20439;-70
2023/04/15 06:34:40;;;;;;;;;;;;;;;;;;5055784;28;19963;-71
2023/04/15 06:37:06;;;;;;;;;;;;;;;;;;5055764;28;19956;-69
2023/04/15 06:39:32;;;;;;;;;;;;;;;;;;5056227;28;19956;-70
2023/04/15 06:41:58;;;;;;;;;;;;;;;;;;5055874;28;20010;-70
2023/04/15 06:44:25;;;;;;;;;;;;;;;;;;5055621;28;19955;-69
2023/04/15 06:46:50;;;;;;;;;;;;;;;;;;5056184;28;19956;-68
2023/04/15 06:49:16;;;;;;;;;;;;;;;;;;5055800;28;20006;-68
2023/04/15 06:51:42;;;;;;;;;;;;;;;;;;5055481;28;20010;-71
2023/04/15 06:54:08;;;;;;;;;;;;;;;;;;5055952;28;20351;-70
2023/04/15 06:56:34;;;;;;;;;;;;;;;;;;5055599;28;19959;-69
2023/04/15 06:59:00;;;;;;;;;;;;;;;;;;5055306;28;20526;-70
2023/04/15 07:01:26;;;;;;;;;;;;;;;;;;5055778;28;20070;-69
2023/04/15 07:03:52;;;;;;;;;;;;;;;;;;5056024;28;20559;-71
2023/04/15 07:06:18;;;;;;;;;;;;;;;;;;5055468;28;19956;-69
2023/04/15 07:08:44;;;;;;;;;;;;;;;;;;5053787;28;19959;-70
2023/04/15 07:11:10;;;;;;;;;;;;;;;;;;5055693;28;20305;-69
2023/04/15 07:13:36;;;;;;;;;;;;;;;;;;5055064;28;19963;-71
2023/04/15 07:16:02;;;;;;;;;;;;;;;;;;5055266;28;19999;-70
2023/04/15 07:18:28;;;;;;;;;;;;;;;;;;5054961;28;19955;-71
2023/04/15 07:20:54;;;;;;;;;;;;;;;;;;5054635;28;19976;-70
2023/04/15 07:23:20;;;;;;;;;;;;;;;;;;5055465;28;20013;-69
2023/04/15 07:25:46;;;;;;;;;;;;;;;;;;5054805;28;19956;-70
2023/04/15 07:28:12;;;;;;;;;;;;;;;;;;5055328;28;20358;-71
2023/04/15 07:30:38;;;;;;;;;;;;;;;;;;5053739;28;19971;-71
2023/04/15 07:33:04;;;;;;;;;;;;;;;;;;5054939;28;19962;-69
2023/04/15 07:35:30;;;;;;;;;;;;;;;;;;5054615;28;20328;-71
2023/04/15 07:37:56;;;;;;;;;;;;;;;;;;5055362;28;19956;-71
2023/04/15 07:40:22;;;;;;;;;;;;;;;;;;5054531;28;20009;-70
2023/04/15 07:42:48;;;;;;;;;;;;;;;;;;5054454;28;20464;-71
2023/04/15 07:45:15;;;;;;;;;;;;;;;;;;5054451;28;20030;-71
2023/04/15 07:47:41;;;;;;;;;;;;;;;;;;5054708;28;20053;-71
2023/04/15 07:50:07;;;;;;;;;;;;;;;;;;5054335;28;20039;-69
2023/04/15 07:52:38;;;;;;;;;;;;;;;;;;5054300;28;19956;-68
2023/04/15 07:55:03;;;;;;;;;;;;;;;;;;5054774;28;19959;-70
2023/04/15 07:57:29;;;;;;;;;;;;;;;;;;5054225;28;19955;-69
2023/04/15 07:59:55;;;;;;;;;;;;;;;;;;5054457;28;20466;-70
2023/04/15 08:02:21;;;;;;;;;;;;;;;;;;5054331;28;20023;-70
2023/04/15 08:04:47;;;;;;;;;;;;;;;;;;5054383;28;20335;-71
2023/04/15 08:07:13;;;;;;;;;;;;;;;;;;5054281;28;19970;-71
2023/04/15 08:09:39;;;;;;;;;;;;;;;;;;5054307;28;20418;-71
2023/04/15 08:12:08;;;;;;;;;;;;;;;;;;5054021;28;19956;-71
2023/04/15 08:14:34;;;;;;;;;;;;;;;;;;5054229;28;19956;-71
2023/04/15 08:17:00;;;;;;;;;;;;;;;;;;5053892;28;19956;-72
2023/04/15 08:19:25;;;;;;;;;;;;;;;;;;5054038;28;20286;-70
2023/04/15 08:21:51;;;;;;;;;;;;;;;;;;5053477;28;20133;-68
2023/04/15 08:24:17;;;;;;;;;;;;;;;;;;5053923;28;19958;-70
2023/04/15 08:26:43;;;;;;;;;;;;;;;;;;5053964;28;19960;-68
2023/04/15 08:29:09;;;;;;;;;;;;;;;;;;5053702;28;19979;-68
2023/04/15 08:31:35;;;;;;;;;;;;;;;;;;5053547;28;20431;-70
2023/04/15 08:34:01;;;;;;;;;;;;;;;;;;5053828;28;20037;-70
2023/04/15 08:36:27;;;;;;;;;;;;;;;;;;5053570;28;19961;-69
2023/04/15 08:38:53;;;;;;;;;;;;;;;;;;5053818;28;19967;-71
2023/04/15 08:41:19;;;;;;;;;;;;;;;;;;5053131;28;19979;-69
2023/04/15 08:43:45;;;;;;;;;;;;;;;;;;5053603;28;20000;-72
2023/04/15 08:46:11;;;;;;;;;;;;;;;;;;5053041;28;20042;-71
2023/04/15 08:48:37;;;;;;;;;;;;;;;;;;5052243;28;19955;-71
2023/04/15 08:51:03;;;;;;;;;;;;;;;;;;5052961;28;19967;-72
2023/04/15 08:53:29;;;;;;;;;;;;;;;;;;5053088;28;20436;-72
2023/04/15 08:55:55;;;;;;;;;;;;;;;;;;5053234;28;20074;-70
2023/04/15 08:58:21;;;;;;;;;;;;;;;;;;5053356;28;19991;-70
2023/04/15 09:00:47;;;;;;;;;;;;;;;;;;5053109;28;19960;-69
2023/04/15 09:03:13;;;;;;;;;;;;;;;;;;5053569;28;19967;-71
2023/04/15 09:05:39;;;;;;;;;;;;;;;;;;5053590;28;19959;-68
2023/04/15 09:08:05;;;;;;;;;;;;;;;;;;5054081;28;19956;-71
2023/04/15 09:10:31;;;;;;;;;;;;;;;;;;5053562;28;19963;-73
2023/04/15 09:12:57;;;;;;;;;;;;;;;;;;5053970;28;20041;-70
2023/04/15 09:15:23;;;;;;;;;;;;;;;;;;5053220;28;20404;-68
2023/04/15 09:17:49;;;;;;;;;;;;;;;;;;5053207;28;19956;-69
2023/04/15 09:20:15;;;;;;;;;;;;;;;;;;5053097;28;19956;-70
2023/04/15 09:22:41;;;;;;;;;;;;;;;;;;5052708;28;20111;-68
2023/04/15 09:25:07;;;;;;;;;;;;;;;;;;5052948;28;20374;-68
2023/04/15 09:27:33;;;;;;;;;;;;;;;;;;5053142;28;19959;-69
2023/04/15 09:29:58;;;;;;;;;;;;;;;;;;5053285;28;20312;-69
2023/04/15 09:32:24;;;;;;;;;;;;;;;;;;5053119;28;19956;-69
2023/04/15 09:34:50;;;;;;;;;;;;;;;;;;5053045;28;20420;-69
2023/04/15 09:37:19;;;;;;;;;;;;;;;;;;5053299;28;19956;-70
2023/04/15 09:39:46;;;;;;;;;;;;;;;;;;5052981;28;19963;-70
2023/04/15 09:42:12;;;;;;;;;;;;;;;;;;5053236;28;20344;-69
2023/04/15 09:44:37;;;;;;;;;;;;;;;;;;5053013;28;19962;-69
2023/04/15 09:47:03;;;;;;;;;;;;;;;;;;5051545;28;19964;-70
2023/04/15 09:49:29;;;;;;;;;;;;;;;;;;5053244;28;19962;-70
2023/04/15 09:51:55;;;;;;;;;;;;;;;;;;5053104;28;19963;-69
2023/04/15 09:54:21;;;;;;;;;;;;;;;;;;5054151;28;19956;-70
2023/04/15 09:56:47;;;;;;;;;;;;;;;;;;5057286;28;20405;-69
2023/04/15 09:59:13;;;;;;;;;;;;;;;;;;5055126;28;19986;-69
2023/04/15 10:01:39;;;;;;;;;;;;;;;;;;5056870;28;19976;-68
2023/04/15 10:04:05;;;;;;;;;;;;;;;;;;5055002;28;19959;-69
2023/04/15 10:06:31;;;;;;;;;;;;;;;;;;5056332;28;20408;-69
2023/04/15 10:08:57;;;;;;;;;;;;;;;;;;5056816;28;19963;-68
2023/04/15 10:11:23;;;;;;;;;;;;;;;;;;5056241;28;19960;-69
2023/04/15 10:13:49;;;;;;;;;;;;;;;;;;5056206;28;19956;-69
2023/04/15 10:16:15;;;;;;;;;;;;;;;;;;5056117;28;19955;-69
2023/04/15 10:18:41;;;;;;;;;;;;;;;;;;5056398;28;19955;-70
2023/04/15 10:21:07;;;;;;;;;;;;;;;;;;5055813;28;19998;-69
2023/04/15 10:23:33;;;;;;;;;;;;;;;;;;5056330;28;19960;-69
2023/04/15 10:25:59;;;;;;;;;;;;;;;;;;5055927;28;19955;-69
2023/04/15 10:28:26;;;;;;;;;;;;;;;;;;5056163;28;19960;-70
2023/04/15 10:30:52;;;;;;;;;;;;;;;;;;5055794;28;19971;-69
2023/04/15 10:33:19;;;;;;;;;;;;;;;;;;5055839;28;20050;-69
2023/04/15 10:35:46;;;;;;;;;;;;;;;;;;5056385;28;19956;-69
2023/04/15 10:38:12;;;;;;;;;;;;;;;;;;5055718;28;20094;-68
2023/04/15 10:40:38;;;;;;;;;;;;;;;;;;5056227;28;20431;-69
2023/04/15 10:43:04;;;;;;;;;;;;;;;;;;5055873;28;19980;-69
2023/04/15 10:45:30;;;;;;;;;;;;;;;;;;5055879;28;19982;-69
2023/04/15 10:47:56;;;;;;;;;;;;;;;;;;5056123;28;20046;-68
2023/04/15 10:50:22;;;;;;;;;;;;;;;;;;5055481;28;19962;-68
2023/04/15 10:52:48;;;;;;;;;;;;;;;;;;5055767;28;19956;-69
2023/04/15 10:55:17;;;;;;;;;;;;;;;;;;5055663;28;20003;-70
2023/04/15 10:57:43;;;;;;;;;;;;;;;;;;5055787;28;19966;-69
2023/04/15 11:00:10;;;;;;;;;;;;;;;;;;5055319;28;19956;-69
2023/04/15 11:02:35;;;;;;;;;;;;;;;;;;5055479;28;20509;-69
2023/04/15 11:05:02;;;;;;;;;;;;;;;;;;5055406;28;19956;-69
2023/04/15 11:07:28;;;;;;;;;;;;;;;;;;5055186;28;19956;-69
2023/04/15 11:09:55;;;;;;;;;;;;;;;;;;5055437;28;20029;-68
2023/04/15 11:12:20;;;;;;;;;;;;;;;;;;5055094;28;19956;-69
2023/04/15 11:14:46;;;;;;;;;;;;;;;;;;5055038;28;19960;-69
2023/04/15 11:17:12;;;;;;;;;;;;;;;;;;5055304;28;19956;-69
2023/04/15 11:19:38;;;;;;;;;;;;;;;;;;5055237;28;19963;-69
2023/04/15 11:22:04;;;;;;;;;;;;;;;;;;5054729;28;20049;-69
2023/04/15 11:24:30;;;;;;;;;;;;;;;;;;5054906;28;19987;-69
2023/04/15 11:26:56;;;;;;;;;;;;;;;;;;5054792;28;19956;-68
2023/04/15 11:29:22;;;;;;;;;;;;;;;;;;5054953;28;19971;-68
2023/04/15 11:31:48;;;;;;;;;;;;;;;;;;5054739;28;20006;-69
2023/04/15 11:34:14;;;;;;;;;;;;;;;;;;5055248;28;19963;-68
2023/04/15 11:36:40;;;;;;;;;;;;;;;;;;5054896;28;19956;-69
2023/04/15 11:39:06;;;;;;;;;;;;;;;;;;5054577;28;20404;-69
2023/04/15 11:41:32;;;;;;;;;;;;;;;;;;5054457;28;19976;-69
2023/04/15 11:43:58;;;;;;;;;;;;;;;;;;5054484;28;19956;-68
2023/04/15 11:46:23;;;;;;;;;;;;;;;;;;5054439;28;19959;-68
2023/04/15 11:48:49;;;;;;;;;;;;;;;;;;5054682;28;19963;-69
2023/04/15 11:51:15;;;;;;;;;;;;;;;;;;5054344;28;20347;-69
2023/04/15 11:53:41;;;;;;;;;;;;;;;;;;5054600;28;19978;-69
2023/04/15 11:56:07;;;;;;;;;;;;;;;;;;5054285;28;20077;-68
2023/04/15 11:58:33;;;;;;;;;;;;;;;;;;5054500;28;19960;-69
2023/04/15 12:00:59;;;;;;;;;;;;;;;;;;5054102;28;20482;-69
2023/04/15 12:03:26;;;;;;;;;;;;;;;;;;5054139;28;19963;-68
2023/04/15 12:05:52;;;;;;;;;;;;;;;;;;5054374;28;19963;-69
2023/04/15 12:08:18;;;;;;;;;;;;;;;;;;5054032;28;19956;-69
2023/04/15 12:10:44;;;;;;;;;;;;;;;;;;5054031;28;19955;-69
2023/04/15 12:13:10;;;;;;;;;;;;;;;;;;5054278;28;19956;-69
2023/04/15 12:15:36;;;;;;;;;;;;;;;;;;5054244;28;19965;-69
2023/04/15 12:18:01;;;;;;;;;;;;;;;;;;5053412;28;20401;-68
2023/04/15 12:20:27;;;;;;;;;;;;;;;;;;5054131;28;19956;-69
2023/04/15 12:22:54;;;;;;;;;;;;;;;;;;5053356;28;20499;-69
2023/04/15 12:25:20;;;;;;;;;;;;;;;;;;5053779;28;19956;-68
2023/04/15 12:27:46;;;;;;;;;;;;;;;;;;5052228;28;19960;-69
2023/04/15 12:30:12;;;;;;;;;;;;;;;;;;5053980;28;19978;-69
2023/04/15 12:32:38;;;;;;;;;;;;;;;;;;5053710;28;20037;-69
2023/04/15 12:35:04;;;;;;;;;;;;;;;;;;5053954;28;19956;-69
2023/04/15 12:37:30;;;;;;;;;;;;;;;;;;5053611;28;20391;-68
2023/04/15 12:39:56;;;;;;;;;;;;;;;;;;5053922;28;19963;-69
2023/04/15 12:42:22;;;;;;;;;;;;;;;;;;5053531;28;20066;-68
2023/04/15 12:44:49;;;;;;;;;;;;;;;;;;5054122;28;20422;-69
2023/04/15 12:47:15;;;;;;;;;;;;;;;;;;5052081;28;19960;-69
2023/04/15 12:49:41;;;;;;;;;;;;;;;;;;5053490;28;20059;-69
2023/04/15 12:52:06;;;;;;;;;;;;;;;;;;5053512;28;20339;-69
2023/04/15 12:54:33;;;;;;;;;;;;;;;;;;5053531;28;20180;-69
2023/04/15 12:56:59;;;;;;;;;;;;;;;;;;5053737;28;20039;-69
2023/04/15 12:59:25;;;;;;;;;;;;;;;;;;5053494;28;19956;-69
2023/04/15 13:01:52;;;;;;;;;;;;;;;;;;5053310;28;19976;-70
2023/04/15 13:04:18;;;;;;;;;;;;;;;;;;5053734;28;19956;-68
2023/04/15 13:06:44;;;;;;;;;;;;;;;;;;5053418;28;20071;-68
2023/04/15 13:09:10;;;;;;;;;;;;;;;;;;5053380;28;20412;-68
2023/04/15 13:11:36;;;;;;;;;;;;;;;;;;5053882;28;20006;-68
2023/04/15 13:14:02;;;;;;;;;;;;;;;;;;5053354;28;19988;-69
2023/04/15 13:16:28;;;;;;;;;;;;;;;;;;5053312;28;19956;-68
2023/04/15 13:18:54;;;;;;;;;;;;;;;;;;5053309;28;20420;-69
2023/04/15 13:21:20;;;;;;;;;;;;;;;;;;5053170;28;20027;-69
2023/04/15 13:23:46;;;;;;;;;;;;;;;;;;5053371;28;20022;-69
2023/04/15 13:26:12;;;;;;;;;;;;;;;;;;5053487;28;20005;-69
2023/04/15 13:28:38;;;;;;;;;;;;;;;;;;5053487;28;19956;-69
2023/04/15 13:31:04;;;;;;;;;;;;;;;;;;5057625;28;20055;-69
2023/04/15 13:33:30;;;;;;;;;;;;;;;;;;5056951;28;20432;-69
2023/04/15 13:35:55;;;;;;;;;;;;;;;;;;5057485;28;19956;-68
2023/04/15 13:38:21;;;;;;;;;;;;;;;;;;5056938;28;19956;-69
2023/04/15 13:40:47;;;;;;;;;;;;;;;;;;5057051;28;19991;-69
2023/04/15 13:43:13;;;;;;;;;;;;;;;;;;5056796;28;20431;-68
2023/04/15 13:45:40;;;;;;;;;;;;;;;;;;5057011;28;19962;-68
2023/04/15 13:48:06;;;;;;;;;;;;;;;;;;5057054;28;19983;-69
2023/04/15 13:50:32;;;;;;;;;;;;;;;;;;5057298;28;19960;-68
2023/04/15 13:52:58;;;;;;;;;;;;;;;;;;5056598;28;20408;-68
2023/04/15 13:55:24;;;;;;;;;;;;;;;;;;5056758;28;20010;-69
2023/04/15 13:57:50;;;;;;;;;;;;;;;;;;5055053;28;19960;-69
2023/04/15 14:00:16;;;;;;;;;;;;;;;;;;5056771;28;20046;-69
2023/04/15 14:02:42;;;;;;;;;;;;;;;;;;5056341;28;20025;-68
2023/04/15 14:05:08;;;;;;;;;;;;;;;;;;5056623;28;20026;-69
2023/04/15 14:07:34;;;;;;;;;;;;;;;;;;5056368;28;20001;-68
2023/04/15 14:09:59;;;;;;;;;;;;;;;;;;5056588;28;19956;-69
2023/04/15 14:12:25;;;;;;;;;;;;;;;;;;5056532;28;19963;-69
2023/04/15 14:14:51;;;;;;;;;;;;;;;;;;5056263;28;20027;-69
2023/04/15 14:17:17;;;;;;;;;;;;;;;;;;5056751;28;19963;-69
2023/04/15 14:19:43;;;;;;;;;;;;;;;;;;5056368;28;20327;-69
2023/04/15 14:22:09;;;;;;;;;;;;;;;;;;5055827;28;19992;-69
2023/04/15 14:24:35;;;;;;;;;;;;;;;;;;5056614;28;19963;-68
2023/04/15 14:27:01;;;;;;;;;;;;;;;;;;5055995;28;19987;-69
2023/04/15 14:29:27;;;;;;;;;;;;;;;;;;5056260;28;19979;-69
2023/04/15 14:31:53;;;;;;;;;;;;;;;;;;5055912;28;20459;-68
2023/04/15 14:34:21;;;;;;;;;;;;;;;;;;5055885;28;19960;-69
2023/04/15 14:36:46;;;;;;;;;;;;;;;;;;5056353;28;19985;-69
2023/04/15 14:39:12;;;;;;;;;;;;;;;;;;5055817;28;19960;-68
2023/04/15 14:41:38;;;;;;;;;;;;;;;;;;5055577;28;19998;-69
2023/04/15 14:44:04;;;;;;;;;;;;;;;;;;5055919;28;19956;-69
2023/04/15 14:46:30;;;;;;;;;;;;;;;;;;5055624;28;19956;-69
2023/04/15 14:48:56;;;;;;;;;;;;;;;;;;5055862;28;20010;-68
2023/04/15 14:51:22;;;;;;;;;;;;;;;;;;5055568;28;19960;-69
2023/04/15 14:53:48;;;;;;;;;;;;;;;;;;5055434;28;20010;-69
2023/04/15 14:56:14;;;;;;;;;;;;;;;;;;5056012;28;19999;-68
2023/04/15 14:58:40;;;;;;;;;;;;;;;;;;5055428;28;19963;-69
2023/04/15 15:01:06;;;;;;;;;;;;;;;;;;5055861;28;20002;-69
2023/04/15 15:03:32;;;;;;;;;;;;;;;;;;5055299;28;19963;-68
2023/04/15 15:05:57;;;;;;;;;;;;;;;;;;5055413;28;20003;-69
2023/04/15 15:08:23;;;;;;;;;;;;;;;;;;5055478;28;19960;-69
2023/04/15 15:10:49;;;;;;;;;;;;;;;;;;5055199;28;19955;-69
2023/04/15 15:13:15;;;;;;;;;;;;;;;;;;5055082;28;19963;-68
2023/04/15 15:15:41;;;;;;;;;;;;;;;;;;5055299;28;19962;-69
2023/04/15 15:18:07;;;;;;;;;;;;;;;;;;5054974;28;20001;-69
2023/04/15 15:20:34;;;;;;;;;;;;;;;;;;5055499;28;20507;-69
2023/04/15 15:23:00;;;;;;;;;;;;;;;;;;5054300;28;20035;-69
2023/04/15 15:25:26;;;;;;;;;;;;;;;;;;5054712;28;19963;-68
2023/04/15 15:27:51;;;;;;;;;;;;;;;;;;5055249;28;20395;-69
2023/04/15 15:30:17;;;;;;;;;;;;;;;;;;5054967;28;19978;-69
2023/04/15 15:32:43;;;;;;;;;;;;;;;;;;5054729;28;20479;-69
2023/04/15 15:35:09;;;;;;;;;;;;;;;;;;5054669;28;19956;-69
2023/04/15 15:37:35;;;;;;;;;;;;;;;;;;5054633;28;20424;-68
2023/04/15 15:40:02;;;;;;;;;;;;;;;;;;5055121;28;19956;-68
2023/04/15 15:42:28;;;;;;;;;;;;;;;;;;5054487;28;19976;-69
2023/04/15 15:44:54;;;;;;;;;;;;;;;;;;5054543;28;19962;-68
2023/04/15 15:47:19;;;;;;;;;;;;;;;;;;5054472;28;19963;-69
2023/04/15 15:49:45;;;;;;;;;;;;;;;;;;5054412;28;20105;-69
2023/04/15 15:52:11;;;;;;;;;;;;;;;;;;5053594;28;19956;-69
2023/04/15 15:54:37;;;;;;;;;;;;;;;;;;5054348;28;19963;-69
2023/04/15 15:57:03;;;;;;;;;;;;;;;;;;5054199;28;19964;-69
2023/04/15 15:59:29;;;;;;;;;;;;;;;;;;5054268;28;19963;-69
2023/04/15 16:01:55;;;;;;;;;;;;;;;;;;5054174;28;19976;-69
2023/04/15 16:04:21;;;;;;;;;;;;;;;;;;5054208;28;19962;-68
2023/04/15 16:06:47;;;;;;;;;;;;;;;;;;5054660;28;20401;-69
2023/04/15 16:09:13;;;;;;;;;;;;;;;;;;5054395;28;19960;-69
2023/04/15 16:11:39;;;;;;;;;;;;;;;;;;5054007;28;20302;-68
2023/04/15 16:14:05;;;;;;;;;;;;;;;;;;5054263;28;19987;-69
2023/04/15 16:16:30;;;;;;;;;;;;;;;;;;5053952;28;19958;-69
2023/04/15 16:18:56;;;;;;;;;;;;;;;;;;5053913;28;19956;-69
2023/04/15 16:21:23;;;;;;;;;;;;;;;;;;5053835;28;19992;-69
2023/04/15 16:23:49;;;;;;;;;;;;;;;;;;5053891;28;20050;-69
2023/04/15 16:26:15;;;;;;;;;;;;;;;;;;5054320;28;20431;-69
2023/04/15 16:28:41;;;;;;;;;;;;;;;;;;5054030;28;19966;-68
2023/04/15 16:31:07;;;;;;;;;;;;;;;;;;5053704;28;19972;-68
2023/04/15 16:33:33;;;;;;;;;;;;;;;;;;5053742;28;19960;-69
2023/04/15 16:35:59;;;;;;;;;;;;;;;;;;5054256;28;20428;-69